createdAt,value
2023-04-20T00:01:28.836Z,101518.50
2023-04-20T00:04:16.065Z,101522.69
2023-04-20T00:07:00.972Z,101521.91
2023-04-20T00:09:46.152Z,101523.66
2023-04-20T00:12:30.982Z,101519.34
2023-04-20T00:15:16.307Z,101516.78
2023-04-20T00:18:01.344Z,101517.63
2023-04-20T00:20:46.806Z,101509.88
2023-04-20T00:23:31.640Z,101509.16
2023-04-20T00:26:18.802Z,101514.19
2023-04-20T00:29:04.002Z,101508.22
2023-04-20T00:31:49.296Z,101503.94
2023-04-20T00:34:34.471Z,101498.75
2023-04-20T00:37:19.668Z,101495.38
2023-04-20T00:40:05.369Z,101485.75
2023-04-20T00:42:50.721Z,101484.81
2023-04-20T00:45:35.789Z,101483.00
2023-04-20T00:48:22.073Z,101476.03
2023-04-20T00:51:07.019Z,101465.88
2023-04-20T00:53:51.721Z,101472.69
2023-04-20T00:56:38.281Z,101471.88
2023-04-20T00:59:24.269Z,101474.81
2023-04-20T01:02:09.152Z,101466.66
2023-04-20T01:04:54.583Z,101455.38
2023-04-20T01:07:39.533Z,101455.56
2023-04-20T01:10:24.543Z,101457.31
2023-04-20T01:13:09.333Z,101455.59
2023-04-20T01:15:59.981Z,101453.78
2023-04-20T01:18:49.177Z,101456.28
2023-04-20T01:21:34.334Z,101447.72
2023-04-20T01:24:20.057Z,101447.91
2023-04-20T01:27:04.951Z,101445.06
2023-04-20T01:29:50.254Z,101454.56
2023-04-20T01:32:35.393Z,101451.09
2023-04-20T01:35:20.666Z,101448.47
2023-04-20T01:38:05.576Z,101446.09
2023-04-20T01:40:51.814Z,101431.34
2023-04-20T01:43:38.220Z,101439.22
2023-04-20T01:46:23.820Z,101433.06
2023-04-20T01:49:08.816Z,101427.03
2023-04-20T01:51:54.169Z,101426.34
2023-04-20T01:54:39.296Z,101423.59
2023-04-20T01:57:25.109Z,101424.59
2023-04-20T02:00:11.245Z,101420.13
2023-04-20T02:02:57.414Z,101426.22
2023-04-20T02:05:42.557Z,101421.78
2023-04-20T02:08:28.313Z,101427.03
2023-04-20T02:11:13.290Z,101423.56
2023-04-20T02:13:58.790Z,101420.03
2023-04-20T02:16:43.542Z,101413.03
2023-04-20T02:19:28.516Z,101416.41
2023-04-20T02:22:13.479Z,101407.03
2023-04-20T02:24:59.029Z,101406.91
2023-04-20T02:27:43.869Z,101406.06
2023-04-20T02:30:29.636Z,101412.00
2023-04-20T02:33:14.761Z,101401.72
2023-04-20T02:35:59.981Z,101405.28
2023-04-20T02:38:45.104Z,101411.47
2023-04-20T02:41:30.759Z,101405.59
2023-04-20T02:44:15.686Z,101407.41
2023-04-20T02:47:00.819Z,101404.88
2023-04-20T02:49:46.058Z,101402.47
2023-04-20T02:52:31.892Z,101402.19
2023-04-20T02:55:16.798Z,101409.88
2023-04-20T02:58:02.800Z,101404.03
2023-04-20T03:00:48.302Z,101413.63
2023-04-20T03:03:33.689Z,101400.44
2023-04-20T03:06:19.269Z,101407.31
2023-04-20T03:09:04.057Z,101408.13
2023-04-20T03:11:49.928Z,101407.41
2023-04-20T03:14:34.923Z,101408.03
2023-04-20T03:17:20.198Z,101410.72
2023-04-20T03:20:05.815Z,101414.63
2023-04-20T03:22:51.029Z,101416.81
2023-04-20T03:25:36.280Z,101417.69
2023-04-20T03:28:21.732Z,101414.38
2023-04-20T03:31:06.649Z,101409.88
2023-04-20T03:33:52.052Z,101413.34
2023-04-20T03:36:37.275Z,101412.41
2023-04-20T03:39:22.146Z,101411.66
2023-04-20T03:42:07.117Z,101419.28
2023-04-20T03:44:52.869Z,101409.91
2023-04-20T03:47:38.012Z,101411.66
2023-04-20T03:50:22.808Z,101418.56
2023-04-20T03:53:07.478Z,101410.31
2023-04-20T03:55:52.568Z,101411.03
2023-04-20T03:58:37.386Z,101413.66
2023-04-20T04:01:22.246Z,101406.59
2023-04-20T04:04:07.852Z,101417.16
2023-04-20T04:06:52.552Z,101417.09
2023-04-20T04:09:37.397Z,101416.06
2023-04-20T04:12:22.289Z,101420.44
2023-04-20T04:15:08.200Z,101420.44
2023-04-20T04:17:56.091Z,101415.19
2023-04-20T04:20:41.095Z,101410.94
2023-04-20T04:23:26.351Z,101407.41
2023-04-20T04:26:12.397Z,101405.03
2023-04-20T04:28:58.030Z,101403.09
2023-04-20T04:31:42.975Z,101402.31
2023-04-20T04:34:29.724Z,101404.88
2023-04-20T04:37:15.198Z,101407.47
2023-04-20T04:40:00.576Z,101407.41
2023-04-20T04:42:45.798Z,101412.53
2023-04-20T04:45:31.756Z,101415.13
2023-04-20T04:48:16.533Z,101415.34
2023-04-20T04:51:02.450Z,101416.06
2023-04-20T04:53:49.436Z,101417.84
2023-04-20T04:56:34.713Z,101421.22
2023-04-20T04:59:19.686Z,101417.69
2023-04-20T05:02:04.889Z,101419.66
2023-04-20T05:04:49.970Z,101420.56
2023-04-20T05:07:35.502Z,101422.13
2023-04-20T05:10:20.622Z,101424.88
2023-04-20T05:13:05.723Z,101428.38
2023-04-20T05:15:51.331Z,101428.50
2023-04-20T05:18:36.268Z,101437.09
2023-04-20T05:21:21.032Z,101440.53
2023-04-20T05:24:07.365Z,101442.19
2023-04-20T05:26:52.697Z,101444.72
2023-04-20T05:29:38.468Z,101436.16
2023-04-20T05:32:23.497Z,101446.59
2023-04-20T05:35:08.934Z,101440.56
2023-04-20T05:37:54.420Z,101441.25
2023-04-20T05:40:39.106Z,101443.91
2023-04-20T05:43:24.131Z,101442.19
2023-04-20T05:46:08.954Z,101447.44
2023-04-20T05:48:54.184Z,101445.66
2023-04-20T05:51:39.472Z,101443.00
2023-04-20T05:54:24.605Z,101450.84
2023-04-20T05:57:11.993Z,101451.78
2023-04-20T05:59:57.021Z,101450.03
2023-04-20T06:02:43.318Z,101452.63
2023-04-20T06:05:28.814Z,101452.63
2023-04-20T06:08:14.080Z,101456.94
2023-04-20T06:10:59.033Z,101451.88
2023-04-20T06:13:44.434Z,101455.41
2023-04-20T06:16:29.577Z,101451.03
2023-04-20T06:19:14.314Z,101459.59
2023-04-20T06:22:01.004Z,101457.00
2023-04-20T06:24:46.580Z,101453.56
2023-04-20T06:27:32.604Z,101449.31
2023-04-20T06:30:17.655Z,101455.41
2023-04-20T06:33:03.244Z,101452.88
2023-04-20T06:35:48.007Z,101453.78
2023-04-20T06:38:32.825Z,101460.75
2023-04-20T06:41:17.946Z,101459.91
2023-04-20T06:44:02.852Z,101456.53
2023-04-20T06:46:47.630Z,101470.38
2023-04-20T06:49:32.487Z,101464.25
2023-04-20T06:52:17.384Z,101460.91
2023-04-20T06:55:02.516Z,101461.72
2023-04-20T06:57:47.666Z,101462.56
2023-04-20T07:00:32.570Z,101466.03
2023-04-20T07:03:18.895Z,101468.59
2023-04-20T07:06:04.713Z,101467.72
2023-04-20T07:08:49.898Z,101471.19
2023-04-20T07:11:35.463Z,101476.38
2023-04-20T07:14:20.880Z,101475.56
2023-04-20T07:17:06.131Z,101466.09
2023-04-20T07:19:52.365Z,101467.03
2023-04-20T07:22:38.867Z,101472.22
2023-04-20T07:25:24.831Z,101478.34
2023-04-20T07:28:09.732Z,101485.22
2023-04-20T07:30:54.683Z,101470.53
2023-04-20T07:33:40.008Z,101467.13
2023-04-20T07:36:25.049Z,101474.91
2023-04-20T07:39:10.159Z,101479.25
2023-04-20T07:41:55.097Z,101490.47
2023-04-20T07:44:41.410Z,101492.22
2023-04-20T07:47:26.661Z,101496.59
2023-04-20T07:50:11.775Z,101495.72
2023-04-20T07:52:56.829Z,101497.44
2023-04-20T07:55:41.794Z,101494.00
2023-04-20T07:58:26.565Z,101499.22
2023-04-20T08:01:11.457Z,101493.16
2023-04-20T08:03:56.852Z,101502.66
2023-04-20T08:06:42.312Z,101505.28
2023-04-20T08:09:30.692Z,101515.72
2023-04-20T08:12:15.700Z,101502.69
2023-04-20T08:15:01.915Z,101512.19
2023-04-20T08:17:47.017Z,101512.13
2023-04-20T08:23:27.632Z,101517.31
2023-04-20T08:26:16.590Z,101522.53
2023-04-20T08:29:02.716Z,101518.25
2023-04-20T08:31:50.040Z,101519.09
2023-04-20T08:34:36.323Z,101519.16
2023-04-20T08:37:21.437Z,101515.69
2023-04-20T08:40:06.968Z,101511.38
2023-04-20T08:42:52.164Z,101507.06
2023-04-20T08:45:37.542Z,101510.56
2023-04-20T08:48:23.321Z,101507.94
2023-04-20T08:51:08.765Z,101505.34
2023-04-20T08:53:55.971Z,101504.44
2023-04-20T08:56:43.785Z,101498.16
2023-04-20T08:59:30.321Z,101492.75
2023-04-20T09:02:15.703Z,101487.28
2023-04-20T09:05:03.013Z,101475.22
2023-04-20T09:07:53.260Z,101478.47
2023-04-20T09:10:41.174Z,101487.09
2023-04-20T09:13:25.836Z,101481.97
2023-04-20T09:16:12.850Z,101478.63
2023-04-20T09:19:00.307Z,101481.19
2023-04-20T09:21:51.440Z,101474.31
2023-04-20T09:24:38.818Z,101476.59
2023-04-20T09:27:26.399Z,101476.88
2023-04-20T09:30:11.868Z,101497.63
2023-04-20T09:33:08.445Z,101499.69
2023-04-20T09:35:53.816Z,101499.16
2023-04-20T09:38:38.728Z,101497.16
2023-04-20T09:41:23.950Z,101492.16
2023-04-20T09:44:10.766Z,101494.06
2023-04-20T09:46:56.523Z,101500.28
2023-04-20T09:49:43.632Z,101503.09
2023-04-20T09:52:29.275Z,101503.00
2023-04-20T09:55:14.224Z,101506.34
2023-04-20T09:58:02.925Z,101493.34
2023-04-20T10:00:47.900Z,101491.69
2023-04-20T10:03:34.770Z,101493.38
2023-04-20T10:06:24.734Z,101495.00
2023-04-20T10:09:22.960Z,101484.47
2023-04-20T10:12:09.609Z,101495.88
2023-04-20T10:14:58.128Z,101492.44
2023-04-20T10:17:43.347Z,101489.81
2023-04-20T10:20:29.048Z,101489.03
2023-04-20T10:23:18.879Z,101493.13
2023-04-20T10:26:04.027Z,101497.78
2023-04-20T10:28:49.555Z,101498.84
2023-04-20T10:31:43.327Z,101498.19
2023-04-20T10:34:32.715Z,101502.66
2023-04-20T10:37:17.514Z,101502.94
2023-04-20T10:40:07.919Z,101488.81
2023-04-20T10:42:53.164Z,101493.25
2023-04-20T10:45:38.572Z,101481.13
2023-04-20T10:48:23.642Z,101485.19
2023-04-20T10:51:10.021Z,101472.16
2023-04-20T10:54:06.700Z,101463.66
2023-04-20T10:56:52.931Z,101465.06
2023-04-20T10:59:41.393Z,101464.72
2023-04-20T11:02:27.969Z,101464.50
2023-04-20T11:05:13.195Z,101461.19
2023-04-20T11:08:01.006Z,101465.56
2023-04-20T11:10:46.256Z,101458.53
2023-04-20T11:13:32.808Z,101449.97
2023-04-20T11:16:19.206Z,101454.50
2023-04-20T11:19:04.852Z,101455.94
2023-04-20T11:21:49.622Z,101453.91
2023-04-20T11:24:35.879Z,101450.06
2023-04-20T11:27:25.023Z,101444.78
2023-04-20T11:30:10.345Z,101446.50
2023-04-20T11:32:55.625Z,101440.81
2023-04-20T11:35:44.626Z,101443.59
2023-04-20T11:38:35.191Z,101434.75
2023-04-20T11:41:20.326Z,101434.75
2023-04-20T11:44:06.977Z,101432.28
2023-04-20T11:46:55.138Z,101428.34
2023-04-20T11:49:40.155Z,101426.09
2023-04-20T11:52:25.728Z,101431.88
2023-04-20T11:55:11.346Z,101429.81
2023-04-20T11:57:56.223Z,101430.78
2023-04-20T12:00:41.122Z,101418.78
2023-04-20T12:03:28.049Z,101427.66
2023-04-20T12:06:14.205Z,101426.97
2023-04-20T12:08:59.604Z,101433.13
2023-04-20T12:11:44.693Z,101436.84
2023-04-20T12:14:29.783Z,101436.97
2023-04-20T12:17:15.026Z,101441.09
2023-04-20T12:20:00.493Z,101436.16
2023-04-20T12:22:45.868Z,101440.69
2023-04-20T12:25:30.817Z,101443.28
2023-04-20T12:28:15.848Z,101448.63
2023-04-20T12:31:00.997Z,101448.75
2023-04-20T12:33:48.534Z,101449.88
2023-04-20T12:36:35.111Z,101451.00
2023-04-20T12:39:20.721Z,101449.13
2023-04-20T12:42:05.921Z,101457.84
2023-04-20T12:44:54.124Z,101447.78
2023-04-20T12:47:40.983Z,101448.50
2023-04-20T12:50:26.090Z,101450.00
2023-04-20T12:53:11.484Z,101450.06
2023-04-20T12:56:01.109Z,101450.31
2023-04-20T12:58:47.076Z,101453.97
2023-04-20T13:01:32.259Z,101452.25
2023-04-20T13:04:17.511Z,101456.59
2023-04-20T13:07:03.119Z,101449.78
2023-04-20T13:09:48.303Z,101447.31
2023-04-20T13:12:33.189Z,101450.94
2023-04-20T13:15:31.777Z,101444.06
2023-04-20T13:18:24.503Z,101449.38
2023-04-20T13:21:09.522Z,101441.59
2023-04-20T13:23:55.506Z,101438.22
2023-04-20T13:26:43.053Z,101446.09
2023-04-20T13:29:28.519Z,101434.00
2023-04-20T13:32:13.767Z,101428.78
2023-04-20T13:35:00.588Z,101423.53
2023-04-20T13:37:46.082Z,101420.97
2023-04-20T13:40:31.215Z,101430.56
2023-04-20T13:43:16.200Z,101427.13
2023-04-20T13:46:02.048Z,101430.59
2023-04-20T13:48:47.157Z,101423.59
2023-04-20T13:51:32.490Z,101418.38
2023-04-20T13:54:18.427Z,101424.47
2023-04-20T13:57:03.781Z,101419.25
2023-04-20T13:59:48.958Z,101420.06
2023-04-20T14:02:33.982Z,101413.97
2023-04-20T14:05:19.408Z,101403.56
2023-04-20T14:08:06.820Z,101416.59
2023-04-20T14:10:52.013Z,101414.00
2023-04-20T14:13:37.739Z,101402.72
2023-04-20T14:16:25.220Z,101413.06
2023-04-20T14:19:10.188Z,101413.03
2023-04-20T14:21:54.968Z,101410.44
2023-04-20T14:24:40.676Z,101412.16
2023-04-20T14:27:25.865Z,101418.31
2023-04-20T14:30:11.430Z,101409.72
2023-04-20T14:32:58.171Z,101412.38
2023-04-20T14:35:43.565Z,101408.00
2023-04-20T14:38:28.465Z,101408.91
2023-04-20T14:41:13.401Z,101406.28
2023-04-20T14:43:58.378Z,101399.41
2023-04-20T14:46:43.889Z,101407.19
2023-04-20T14:49:31.364Z,101401.97
2023-04-20T14:52:16.424Z,101403.72
2023-04-20T14:55:01.280Z,101398.56
2023-04-20T14:57:46.202Z,101400.25
2023-04-20T15:00:32.557Z,101399.34
2023-04-20T15:03:18.296Z,101391.53
2023-04-20T15:06:03.665Z,101395.09
2023-04-20T15:08:49.080Z,101390.66
2023-04-20T15:11:34.038Z,101396.75
2023-04-20T15:14:20.313Z,101398.47
2023-04-20T15:17:05.771Z,101400.16
2023-04-20T15:19:50.547Z,101398.44
2023-04-20T15:22:36.910Z,101397.50
2023-04-20T15:25:22.756Z,101394.03
2023-04-20T15:28:07.895Z,101388.00
2023-04-20T15:30:53.077Z,101389.75
2023-04-20T15:33:38.218Z,101381.94
2023-04-20T15:36:23.098Z,101380.16
2023-04-20T15:39:08.283Z,101374.88
2023-04-20T15:41:53.571Z,101360.94
2023-04-20T15:44:40.680Z,101359.13
2023-04-20T15:47:25.533Z,101357.41
2023-04-20T15:50:11.222Z,101356.41
2023-04-20T15:52:56.436Z,101335.59
2023-04-20T15:55:42.350Z,101337.25
2023-04-20T15:58:28.789Z,101343.34
2023-04-20T16:01:13.995Z,101342.41
2023-04-20T16:03:59.304Z,101343.25
2023-04-20T16:06:44.551Z,101337.97
2023-04-20T16:09:29.350Z,101340.56
2023-04-20T16:12:14.971Z,101345.00
2023-04-20T16:15:01.159Z,101344.09
2023-04-20T16:17:46.721Z,101351.97
2023-04-20T16:20:31.765Z,101363.25
2023-04-20T16:23:19.219Z,101354.56
2023-04-20T16:26:04.461Z,101354.63
2023-04-20T16:28:49.823Z,101355.50
2023-04-20T16:31:36.533Z,101351.97
2023-04-20T16:34:21.522Z,101349.41
2023-04-20T16:37:06.642Z,101341.53
2023-04-20T16:39:51.838Z,101344.94
2023-04-20T16:42:36.966Z,101348.41
2023-04-20T16:45:22.055Z,101346.66
2023-04-20T16:48:08.155Z,101346.72
2023-04-20T16:50:53.177Z,101344.78
2023-04-20T16:53:38.130Z,101335.50
2023-04-20T16:56:22.955Z,101328.78
2023-04-20T16:59:09.146Z,101325.72
2023-04-20T17:01:54.372Z,101310.66
2023-04-20T17:04:39.573Z,101303.84
2023-04-20T17:07:24.814Z,101303.56
2023-04-20T17:10:10.040Z,101306.56
2023-04-20T17:12:57.696Z,101306.16
2023-04-20T17:15:45.140Z,101306.47
2023-04-20T17:18:30.532Z,101300.44
2023-04-20T17:21:17.877Z,101301.38
2023-04-20T17:24:03.393Z,101307.53
2023-04-20T17:26:55.284Z,101304.13
2023-04-20T17:29:43.146Z,101305.94
2023-04-20T17:32:28.562Z,101305.13
2023-04-20T17:35:14.017Z,101294.59
2023-04-20T17:37:59.720Z,101298.25
2023-04-20T17:40:45.321Z,101305.09
2023-04-20T17:43:33.579Z,101300.00
2023-04-20T17:46:18.881Z,101298.25
2023-04-20T17:49:05.997Z,101301.00
2023-04-20T17:51:51.424Z,101309.69
2023-04-20T17:54:36.767Z,101307.94
2023-04-20T17:57:24.778Z,101311.38
2023-04-20T18:00:12.596Z,101298.44
2023-04-20T18:02:58.954Z,101301.06
2023-04-20T18:05:45.639Z,101307.19
2023-04-20T18:08:30.755Z,101314.16
2023-04-20T18:11:16.010Z,101305.50
2023-04-20T18:14:01.269Z,101311.56
2023-04-20T18:16:46.411Z,101308.91
2023-04-20T18:19:32.634Z,101308.91
2023-04-20T18:22:18.094Z,101317.56
2023-04-20T18:25:04.673Z,101326.25
2023-04-20T18:27:49.471Z,101319.31
2023-04-20T18:30:34.828Z,101320.19
2023-04-20T18:33:20.396Z,101324.53
2023-04-20T18:36:09.642Z,101326.25
2023-04-20T18:38:55.197Z,101331.50
2023-04-20T18:41:40.658Z,101339.31
2023-04-20T18:44:28.103Z,101326.38
2023-04-20T18:47:17.571Z,101336.84
2023-04-20T18:50:02.748Z,101325.53
2023-04-20T18:52:50.952Z,101336.78
2023-04-20T18:55:37.600Z,101336.75
2023-04-20T18:58:22.986Z,101330.75
2023-04-20T19:01:07.857Z,101336.00
2023-04-20T19:03:53.290Z,101337.66
2023-04-20T19:06:39.803Z,101335.09
2023-04-20T19:09:25.850Z,101329.88
2023-04-20T19:12:13.638Z,101337.72
2023-04-20T19:15:01.490Z,101335.94
2023-04-20T19:17:47.511Z,101342.00
2023-04-20T19:20:35.808Z,101344.59
2023-04-20T19:23:21.979Z,101341.13
2023-04-20T19:26:07.294Z,101341.22
2023-04-20T19:28:54.347Z,101339.47
2023-04-20T19:31:40.637Z,101331.59
2023-04-20T19:34:25.424Z,101333.50
2023-04-20T19:37:10.589Z,101329.09
2023-04-20T19:39:56.090Z,101329.88
2023-04-20T19:42:42.486Z,101328.19
2023-04-20T19:45:27.597Z,101323.00
2023-04-20T19:48:12.635Z,101322.22
2023-04-20T19:51:01.956Z,101320.50
2023-04-20T19:53:46.949Z,101312.72
2023-04-20T19:56:35.154Z,101311.06
2023-04-20T19:59:20.687Z,101316.22
2023-04-20T20:02:06.191Z,101307.66
2023-04-20T20:04:55.504Z,101308.41
2023-04-20T20:07:42.627Z,101304.13
2023-04-20T20:10:27.361Z,101305.81
2023-04-20T20:13:15.658Z,101298.06
2023-04-20T20:16:00.642Z,101303.19
2023-04-20T20:18:48.041Z,101305.75
2023-04-20T20:21:35.665Z,101305.81
2023-04-20T20:26:47.224Z,101298.84
2023-04-20T20:29:32.533Z,101296.19
2023-04-20T20:32:17.465Z,101289.31
2023-04-20T20:35:04.518Z,101293.75
2023-04-20T20:37:50.048Z,101291.22
2023-04-20T20:40:35.569Z,101292.13
2023-04-20T20:43:24.310Z,101291.31
2023-04-20T20:46:11.882Z,101286.06
2023-04-20T20:49:00.784Z,101283.53
2023-04-20T20:51:46.584Z,101287.06
2023-04-20T20:54:31.871Z,101289.66
2023-04-20T20:57:17.850Z,101292.25
2023-04-20T21:00:07.712Z,101288.78
2023-04-20T21:02:52.866Z,101286.16
2023-04-20T21:05:37.745Z,101282.69
2023-04-20T21:08:24.890Z,101278.38
2023-04-20T21:11:10.170Z,101282.75
2023-04-20T21:14:02.090Z,101283.59
2023-04-20T21:16:47.561Z,101276.69
2023-04-20T21:19:32.792Z,101286.19
2023-04-20T21:22:18.283Z,101290.53
2023-04-20T21:25:03.798Z,101285.28
2023-04-20T21:27:49.101Z,101287.84
2023-04-20T21:30:34.309Z,101282.59
2023-04-20T21:33:21.771Z,101284.34
2023-04-20T21:36:08.343Z,101282.50
2023-04-20T21:38:53.414Z,101288.50
2023-04-20T21:41:38.622Z,101293.69
2023-04-20T21:44:24.643Z,101288.44
2023-04-20T21:47:09.623Z,101280.56
2023-04-20T21:49:54.923Z,101284.94
2023-04-20T21:52:39.962Z,101282.28
2023-04-20T21:55:25.255Z,101282.19
2023-04-20T21:58:11.173Z,101288.25
2023-04-20T22:00:56.520Z,101290.00
2023-04-20T22:03:41.740Z,101290.88
2023-04-20T22:06:26.973Z,101285.63
2023-04-20T22:09:11.756Z,101285.59
2023-04-20T22:11:58.581Z,101289.91
2023-04-20T22:14:43.469Z,101288.19
2023-04-20T22:17:30.094Z,101288.16
2023-04-20T22:20:16.577Z,101290.75
2023-04-20T22:23:02.025Z,101291.72
2023-04-20T22:25:47.761Z,101289.94
2023-04-20T22:28:33.430Z,101295.19
2023-04-20T22:31:18.696Z,101287.41
2023-04-20T22:34:03.754Z,101287.38
2023-04-20T22:36:48.998Z,101286.50
2023-04-20T22:39:34.061Z,101287.38
2023-04-20T22:42:19.320Z,101286.47
2023-04-20T22:45:04.762Z,101282.19
2023-04-20T22:47:50.101Z,101286.53
2023-04-20T22:50:35.123Z,101282.22
2023-04-20T22:53:20.852Z,101279.56
2023-04-20T22:56:07.333Z,101286.59
2023-04-20T22:58:52.903Z,101278.75
2023-04-20T23:01:38.070Z,101277.88
2023-04-20T23:04:23.257Z,101285.75
2023-04-20T23:07:08.268Z,101282.31
2023-04-20T23:09:53.571Z,101283.16
2023-04-20T23:12:38.368Z,101284.03
2023-04-20T23:15:23.322Z,101282.31
2023-04-20T23:18:08.416Z,101285.81
2023-04-20T23:20:53.534Z,101289.25
2023-04-20T23:23:38.315Z,101281.50
2023-04-20T23:26:24.223Z,101280.66
2023-04-20T23:29:09.674Z,101277.16
2023-04-20T23:31:55.072Z,101270.28
2023-04-20T23:34:40.169Z,101273.69
2023-04-20T23:37:25.217Z,101278.94
2023-04-20T23:40:10.449Z,101273.72
2023-04-20T23:42:55.378Z,101278.03
2023-04-20T23:45:40.366Z,101272.84
2023-04-20T23:48:25.679Z,101269.44
2023-04-20T23:51:10.878Z,101273.75
2023-04-20T23:53:56.062Z,101273.81
2023-04-20T23:56:41.071Z,101266.81
2023-04-20T23:59:26.704Z,101269.44
